sensor_id;sensor_type;location;lat;lon;timestamp;P1;durP1;ratioP1;P2;durP2;ratioP2
76437;SDS011;65273;43.198;0.118;2023-03-25T00:01:33;3.28;;;1.80;;
76437;SDS011;65273;43.198;0.118;2023-03-25T00:04:01;3.78;;;1.60;;
76437;SDS011;65273;43.198;0.118;2023-03-25T00:06:28;2.72;;;1.60;;
76437;SDS011;65273;43.198;0.118;2023-03-25T00:08:59;6.45;;;1.50;;
76437;SDS011;65273;43.198;0.118;2023-03-25T00:11:26;2.58;;;1.27;;
76437;SDS011;65273;43.198;0.118;2023-03-25T00:13:52;4.85;;;1.80;;
76437;SDS011;65273;43.198;0.118;2023-03-25T00:16:18;3.22;;;1.55;;
76437;SDS011;65273;43.198;0.118;2023-03-25T00:18:44;6.15;;;1.90;;
76437;SDS011;65273;43.198;0.118;2023-03-25T00:21:12;2.00;;;1.60;;
76437;SDS011;65273;43.198;0.118;2023-03-25T00:23:38;2.17;;;1.60;;
76437;SDS011;65273;43.198;0.118;2023-03-25T00:26:05;4.72;;;1.17;;
76437;SDS011;65273;43.198;0.118;2023-03-25T00:28:32;3.20;;;1.17;;
76437;SDS011;65273;43.198;0.118;2023-03-25T00:31:00;2.70;;;1.27;;
76437;SDS011;65273;43.198;0.118;2023-03-25T00:33:27;3.00;;;1.45;;
76437;SDS011;65273;43.198;0.118;2023-03-25T00:35:53;2.13;;;1.65;;
76437;SDS011;65273;43.198;0.118;2023-03-25T00:38:27;2.80;;;1.30;;
76437;SDS011;65273;43.198;0.118;2023-03-25T00:43:36;2.65;;;1.10;;
76437;SDS011;65273;43.198;0.118;2023-03-25T00:46:02;3.85;;;1.40;;
76437;SDS011;65273;43.198;0.118;2023-03-25T00:48:28;5.22;;;1.27;;
76437;SDS011;65273;43.198;0.118;2023-03-25T00:50:53;3.30;;;1.30;;
76437;SDS011;65273;43.198;0.118;2023-03-25T00:53:19;2.13;;;1.30;;
76437;SDS011;65273;43.198;0.118;2023-03-25T00:55:45;3.05;;;1.50;;
76437;SDS011;65273;43.198;0.118;2023-03-25T00:58:10;6.93;;;1.65;;
76437;SDS011;65273;43.198;0.118;2023-03-25T01:00:35;2.38;;;1.48;;
76437;SDS011;65273;43.198;0.118;2023-03-25T01:03:01;2.72;;;1.38;;
76437;SDS011;65273;43.198;0.118;2023-03-25T01:05:28;2.20;;;1.52;;
76437;SDS011;65273;43.198;0.118;2023-03-25T01:07:54;1.75;;;1.10;;
76437;SDS011;65273;43.198;0.118;2023-03-25T01:10:20;2.30;;;1.42;;
76437;SDS011;65273;43.198;0.118;2023-03-25T01:12:46;2.80;;;1.25;;
76437;SDS011;65273;43.198;0.118;2023-03-25T01:15:11;1.35;;;1.10;;
76437;SDS011;65273;43.198;0.118;2023-03-25T01:17:37;2.50;;;1.08;;
76437;SDS011;65273;43.198;0.118;2023-03-25T01:20:03;1.60;;;1.13;;
76437;SDS011;65273;43.198;0.118;2023-03-25T01:22:36;2.40;;;1.00;;
76437;SDS011;65273;43.198;0.118;2023-03-25T01:25:01;2.83;;;1.30;;
76437;SDS011;65273;43.198;0.118;2023-03-25T01:27:27;2.92;;;1.10;;
76437;SDS011;65273;43.198;0.118;2023-03-25T01:29:52;4.10;;;1.08;;
76437;SDS011;65273;43.198;0.118;2023-03-25T01:32:18;2.03;;;1.10;;
76437;SDS011;65273;43.198;0.118;2023-03-25T01:34:44;3.05;;;1.10;;
76437;SDS011;65273;43.198;0.118;2023-03-25T01:37:10;3.05;;;1.10;;
76437;SDS011;65273;43.198;0.118;2023-03-25T01:39:36;3.72;;;1.00;;
76437;SDS011;65273;43.198;0.118;2023-03-25T01:42:01;2.35;;;1.35;;
76437;SDS011;65273;43.198;0.118;2023-03-25T01:46:53;5.32;;;1.25;;
76437;SDS011;65273;43.198;0.118;2023-03-25T01:51:48;1.63;;;1.30;;
76437;SDS011;65273;43.198;0.118;2023-03-25T01:54:15;2.67;;;1.30;;
76437;SDS011;65273;43.198;0.118;2023-03-25T01:56:44;3.47;;;1.17;;
76437;SDS011;65273;43.198;0.118;2023-03-25T01:59:11;2.55;;;1.20;;
76437;SDS011;65273;43.198;0.118;2023-03-25T02:01:39;2.58;;;1.00;;
76437;SDS011;65273;43.198;0.118;2023-03-25T02:04:05;1.48;;;1.10;;
76437;SDS011;65273;43.198;0.118;2023-03-25T02:06:45;4.18;;;1.25;;
76437;SDS011;65273;43.198;0.118;2023-03-25T02:09:15;1.35;;;1.10;;
76437;SDS011;65273;43.198;0.118;2023-03-25T02:11:42;1.88;;;1.20;;
76437;SDS011;65273;43.198;0.118;2023-03-25T02:14:09;5.07;;;1.23;;
76437;SDS011;65273;43.198;0.118;2023-03-25T02:16:44;2.58;;;0.95;;
76437;SDS011;65273;43.198;0.118;2023-03-25T02:28:00;1.60;;;1.00;;
76437;SDS011;65273;43.198;0.118;2023-03-25T02:30:49;2.40;;;0.93;;
76437;SDS011;65273;43.198;0.118;2023-03-25T02:41:51;6.10;;;1.20;;
76437;SDS011;65273;43.198;0.118;2023-03-25T02:44:30;2.30;;;1.17;;
76437;SDS011;65273;43.198;0.118;2023-03-25T02:47:00;2.70;;;1.00;;
76437;SDS011;65273;43.198;0.118;2023-03-25T02:49:36;3.03;;;1.10;;
76437;SDS011;65273;43.198;0.118;2023-03-25T02:52:13;4.75;;;1.40;;
76437;SDS011;65273;43.198;0.118;2023-03-25T02:54:41;2.22;;;1.30;;
76437;SDS011;65273;43.198;0.118;2023-03-25T02:57:09;4.82;;;1.15;;
76437;SDS011;65273;43.198;0.118;2023-03-25T02:59:37;2.95;;;1.30;;
76437;SDS011;65273;43.198;0.118;2023-03-25T03:02:04;3.45;;;1.00;;
76437;SDS011;65273;43.198;0.118;2023-03-25T03:04:32;2.17;;;1.10;;
76437;SDS011;65273;43.198;0.118;2023-03-25T03:07:08;3.67;;;1.58;;
76437;SDS011;65273;43.198;0.118;2023-03-25T03:09:56;1.55;;;1.00;;
76437;SDS011;65273;43.198;0.118;2023-03-25T03:12:34;3.05;;;0.98;;
76437;SDS011;65273;43.198;0.118;2023-03-25T03:15:16;2.78;;;1.00;;
76437;SDS011;65273;43.198;0.118;2023-03-25T03:18:00;3.97;;;1.00;;
76437;SDS011;65273;43.198;0.118;2023-03-25T03:20:36;3.75;;;0.93;;
76437;SDS011;65273;43.198;0.118;2023-03-25T03:28:24;1.98;;;0.90;;
76437;SDS011;65273;43.198;0.118;2023-03-25T03:33:30;1.67;;;0.98;;
76437;SDS011;65273;43.198;0.118;2023-03-25T03:35:59;4.35;;;0.90;;
76437;SDS011;65273;43.198;0.118;2023-03-25T03:38:34;3.58;;;1.02;;
76437;SDS011;65273;43.198;0.118;2023-03-25T03:41:04;3.95;;;1.30;;
76437;SDS011;65273;43.198;0.118;2023-03-25T03:43:34;2.63;;;1.10;;
76437;SDS011;65273;43.198;0.118;2023-03-25T03:46:05;3.97;;;1.55;;
76437;SDS011;65273;43.198;0.118;2023-03-25T03:48:37;3.50;;;0.90;;
76437;SDS011;65273;43.198;0.118;2023-03-25T03:51:08;2.17;;;1.17;;
76437;SDS011;65273;43.198;0.118;2023-03-25T03:53:40;3.67;;;1.02;;
76437;SDS011;65273;43.198;0.118;2023-03-25T03:56:09;4.78;;;0.93;;
76437;SDS011;65273;43.198;0.118;2023-03-25T03:58:38;1.25;;;1.00;;
76437;SDS011;65273;43.198;0.118;2023-03-25T04:03:40;3.38;;;1.08;;
76437;SDS011;65273;43.198;0.118;2023-03-25T04:09:15;2.88;;;1.10;;
76437;SDS011;65273;43.198;0.118;2023-03-25T04:14:39;2.22;;;1.05;;
76437;SDS011;65273;43.198;0.118;2023-03-25T04:17:05;5.40;;;1.00;;
76437;SDS011;65273;43.198;0.118;2023-03-25T04:19:31;4.63;;;1.02;;
76437;SDS011;65273;43.198;0.118;2023-03-25T04:22:00;2.30;;;0.80;;
76437;SDS011;65273;43.198;0.118;2023-03-25T04:24:26;5.75;;;1.05;;
76437;SDS011;65273;43.198;0.118;2023-03-25T04:26:58;2.42;;;0.93;;
76437;SDS011;65273;43.198;0.118;2023-03-25T04:29:27;4.50;;;1.42;;
76437;SDS011;65273;43.198;0.118;2023-03-25T04:31:53;1.73;;;0.80;;
76437;SDS011;65273;43.198;0.118;2023-03-25T04:34:20;2.72;;;1.20;;
76437;SDS011;65273;43.198;0.118;2023-03-25T04:36:46;2.97;;;1.00;;
76437;SDS011;65273;43.198;0.118;2023-03-25T04:39:14;3.75;;;1.00;;
76437;SDS011;65273;43.198;0.118;2023-03-25T04:41:42;1.75;;;0.93;;
76437;SDS011;65273;43.198;0.118;2023-03-25T04:44:08;3.15;;;1.48;;
76437;SDS011;65273;43.198;0.118;2023-03-25T04:46:34;1.65;;;0.95;;
76437;SDS011;65273;43.198;0.118;2023-03-25T04:49:00;2.08;;;1.00;;
76437;SDS011;65273;43.198;0.118;2023-03-25T04:51:27;2.28;;;0.98;;
76437;SDS011;65273;43.198;0.118;2023-03-25T04:53:54;1.05;;;0.80;;
76437;SDS011;65273;43.198;0.118;2023-03-25T04:56:19;3.78;;;1.30;;
76437;SDS011;65273;43.198;0.118;2023-03-25T04:58:45;3.28;;;1.10;;
76437;SDS011;65273;43.198;0.118;2023-03-25T05:01:29;3.58;;;0.80;;
76437;SDS011;65273;43.198;0.118;2023-03-25T05:04:01;2.67;;;1.15;;
76437;SDS011;65273;43.198;0.118;2023-03-25T05:06:35;3.97;;;1.20;;
76437;SDS011;65273;43.198;0.118;2023-03-25T05:09:06;3.88;;;1.20;;
76437;SDS011;65273;43.198;0.118;2023-03-25T05:11:34;1.27;;;0.75;;
76437;SDS011;65273;43.198;0.118;2023-03-25T05:14:06;2.60;;;0.90;;
76437;SDS011;65273;43.198;0.118;2023-03-25T05:16:33;5.53;;;0.70;;
76437;SDS011;65273;43.198;0.118;2023-03-25T05:19:00;1.58;;;0.75;;
76437;SDS011;65273;43.198;0.118;2023-03-25T05:21:27;2.85;;;1.42;;
76437;SDS011;65273;43.198;0.118;2023-03-25T05:24:03;2.03;;;1.00;;
76437;SDS011;65273;43.198;0.118;2023-03-25T05:26:32;1.80;;;0.93;;
76437;SDS011;65273;43.198;0.118;2023-03-25T05:28:59;1.92;;;0.90;;
76437;SDS011;65273;43.198;0.118;2023-03-25T05:31:26;2.22;;;1.10;;
76437;SDS011;65273;43.198;0.118;2023-03-25T05:33:52;2.67;;;1.13;;
76437;SDS011;65273;43.198;0.118;2023-03-25T05:36:19;1.67;;;1.25;;
76437;SDS011;65273;43.198;0.118;2023-03-25T05:38:44;2.50;;;1.00;;
76437;SDS011;65273;43.198;0.118;2023-03-25T05:41:11;3.78;;;1.08;;
76437;SDS011;65273;43.198;0.118;2023-03-25T05:43:44;3.60;;;1.50;;
76437;SDS011;65273;43.198;0.118;2023-03-25T05:46:14;2.93;;;0.93;;
76437;SDS011;65273;43.198;0.118;2023-03-25T05:48:41;1.88;;;0.77;;
76437;SDS011;65273;43.198;0.118;2023-03-25T05:51:11;1.55;;;1.08;;
76437;SDS011;65273;43.198;0.118;2023-03-25T05:56:08;6.35;;;1.20;;
76437;SDS011;65273;43.198;0.118;2023-03-25T05:58:35;3.72;;;1.42;;
76437;SDS011;65273;43.198;0.118;2023-03-25T06:01:00;7.20;;;2.90;;
76437;SDS011;65273;43.198;0.118;2023-03-25T06:03:29;12.15;;;5.30;;
76437;SDS011;65273;43.198;0.118;2023-03-25T06:05:58;6.03;;;2.00;;
76437;SDS011;65273;43.198;0.118;2023-03-25T06:08:25;2.60;;;1.33;;
76437;SDS011;65273;43.198;0.118;2023-03-25T06:10:51;5.18;;;2.55;;
76437;SDS011;65273;43.198;0.118;2023-03-25T06:13:22;3.97;;;2.38;;
76437;SDS011;65273;43.198;0.118;2023-03-25T06:15:48;2.75;;;1.95;;
76437;SDS011;65273;43.198;0.118;2023-03-25T06:18:20;3.95;;;1.67;;
76437;SDS011;65273;43.198;0.118;2023-03-25T06:20:49;2.85;;;1.58;;
76437;SDS011;65273;43.198;0.118;2023-03-25T06:23:21;5.03;;;2.33;;
76437;SDS011;65273;43.198;0.118;2023-03-25T06:25:51;2.08;;;1.23;;
76437;SDS011;65273;43.198;0.118;2023-03-25T06:28:17;3.33;;;1.33;;
76437;SDS011;65273;43.198;0.118;2023-03-25T06:30:43;1.98;;;1.42;;
76437;SDS011;65273;43.198;0.118;2023-03-25T06:33:09;3.45;;;1.80;;
76437;SDS011;65273;43.198;0.118;2023-03-25T06:35:35;5.28;;;2.17;;
76437;SDS011;65273;43.198;0.118;2023-03-25T06:38:00;6.47;;;2.47;;
76437;SDS011;65273;43.198;0.118;2023-03-25T06:40:26;6.50;;;3.75;;
76437;SDS011;65273;43.198;0.118;2023-03-25T06:42:51;4.38;;;3.30;;
76437;SDS011;65273;43.198;0.118;2023-03-25T06:45:17;5.22;;;2.72;;
76437;SDS011;65273;43.198;0.118;2023-03-25T06:47:43;3.88;;;2.28;;
76437;SDS011;65273;43.198;0.118;2023-03-25T06:50:08;4.20;;;1.98;;
76437;SDS011;65273;43.198;0.118;2023-03-25T06:52:34;6.22;;;2.30;;
76437;SDS011;65273;43.198;0.118;2023-03-25T06:55:00;5.70;;;1.83;;
76437;SDS011;65273;43.198;0.118;2023-03-25T06:57:25;6.30;;;1.60;;
76437;SDS011;65273;43.198;0.118;2023-03-25T06:59:50;3.63;;;1.70;;
76437;SDS011;65273;43.198;0.118;2023-03-25T07:02:16;2.47;;;1.13;;
76437;SDS011;65273;43.198;0.118;2023-03-25T07:04:41;3.58;;;1.40;;
76437;SDS011;65273;43.198;0.118;2023-03-25T07:07:07;5.07;;;1.30;;
76437;SDS011;65273;43.198;0.118;2023-03-25T07:09:33;2.50;;;1.40;;
76437;SDS011;65273;43.198;0.118;2023-03-25T07:11:58;2.90;;;1.30;;
76437;SDS011;65273;43.198;0.118;2023-03-25T07:14:24;2.35;;;1.10;;
76437;SDS011;65273;43.198;0.118;2023-03-25T07:16:49;5.15;;;2.13;;
76437;SDS011;65273;43.198;0.118;2023-03-25T07:19:15;7.85;;;2.33;;
76437;SDS011;65273;43.198;0.118;2023-03-25T07:21:40;3.17;;;1.30;;
76437;SDS011;65273;43.198;0.118;2023-03-25T07:24:06;3.10;;;1.40;;
76437;SDS011;65273;43.198;0.118;2023-03-25T07:26:32;2.47;;;1.05;;
76437;SDS011;65273;43.198;0.118;2023-03-25T07:28:57;3.15;;;1.05;;
76437;SDS011;65273;43.198;0.118;2023-03-25T07:31:23;3.67;;;1.65;;
76437;SDS011;65273;43.198;0.118;2023-03-25T07:33:48;1.10;;;0.93;;
76437;SDS011;65273;43.198;0.118;2023-03-25T07:36:15;1.42;;;0.80;;
76437;SDS011;65273;43.198;0.118;2023-03-25T07:38:41;5.78;;;0.93;;
76437;SDS011;65273;43.198;0.118;2023-03-25T07:41:07;5.97;;;0.73;;
76437;SDS011;65273;43.198;0.118;2023-03-25T07:43:34;5.47;;;0.98;;
76437;SDS011;65273;43.198;0.118;2023-03-25T07:46:02;2.63;;;1.05;;
76437;SDS011;65273;43.198;0.118;2023-03-25T07:48:31;2.83;;;1.30;;
76437;SDS011;65273;43.198;0.118;2023-03-25T07:50:56;3.85;;;1.33;;
76437;SDS011;65273;43.198;0.118;2023-03-25T07:53:22;3.55;;;1.42;;
76437;SDS011;65273;43.198;0.118;2023-03-25T07:55:47;5.07;;;1.05;;
76437;SDS011;65273;43.198;0.118;2023-03-25T07:58:15;2.58;;;0.70;;
76437;SDS011;65273;43.198;0.118;2023-03-25T08:00:41;2.97;;;0.80;;
76437;SDS011;65273;43.198;0.118;2023-03-25T08:03:08;1.38;;;0.63;;
76437;SDS011;65273;43.198;0.118;2023-03-25T08:05:35;1.33;;;0.50;;
76437;SDS011;65273;43.198;0.118;2023-03-25T08:08:03;2.65;;;0.70;;
76437;SDS011;65273;43.198;0.118;2023-03-25T08:10:29;3.22;;;0.70;;
76437;SDS011;65273;43.198;0.118;2023-03-25T08:12:54;2.55;;;0.82;;
76437;SDS011;65273;43.198;0.118;2023-03-25T08:15:20;2.72;;;0.90;;
76437;SDS011;65273;43.198;0.118;2023-03-25T08:17:48;4.68;;;1.42;;
76437;SDS011;65273;43.198;0.118;2023-03-25T08:20:16;2.88;;;0.82;;
76437;SDS011;65273;43.198;0.118;2023-03-25T08:22:43;3.20;;;0.70;;
76437;SDS011;65273;43.198;0.118;2023-03-25T08:25:09;2.67;;;0.85;;
76437;SDS011;65273;43.198;0.118;2023-03-25T08:27:34;4.90;;;1.00;;
76437;SDS011;65273;43.198;0.118;2023-03-25T08:30:00;2.97;;;0.70;;
76437;SDS011;65273;43.198;0.118;2023-03-25T08:32:26;4.05;;;0.80;;
76437;SDS011;65273;43.198;0.118;2023-03-25T08:34:53;2.72;;;0.75;;
76437;SDS011;65273;43.198;0.118;2023-03-25T08:37:19;2.65;;;0.70;;
76437;SDS011;65273;43.198;0.118;2023-03-25T08:39:46;4.15;;;0.90;;
76437;SDS011;65273;43.198;0.118;2023-03-25T08:42:14;5.30;;;1.02;;
76437;SDS011;65273;43.198;0.118;2023-03-25T08:44:41;3.08;;;1.02;;
76437;SDS011;65273;43.198;0.118;2023-03-25T08:47:06;3.15;;;1.00;;
76437;SDS011;65273;43.198;0.118;2023-03-25T08:49:32;2.70;;;0.90;;
76437;SDS011;65273;43.198;0.118;2023-03-25T08:51:57;2.10;;;0.85;;
76437;SDS011;65273;43.198;0.118;2023-03-25T08:54:25;3.28;;;0.82;;
76437;SDS011;65273;43.198;0.118;2023-03-25T08:56:52;3.00;;;0.85;;
76437;SDS011;65273;43.198;0.118;2023-03-25T08:59:18;3.03;;;1.05;;
76437;SDS011;65273;43.198;0.118;2023-03-25T09:01:44;4.28;;;1.20;;
76437;SDS011;65273;43.198;0.118;2023-03-25T09:04:10;6.70;;;1.30;;
76437;SDS011;65273;43.198;0.118;2023-03-25T09:06:36;4.70;;;1.10;;
76437;SDS011;65273;43.198;0.118;2023-03-25T09:09:03;2.90;;;0.88;;
76437;SDS011;65273;43.198;0.118;2023-03-25T09:11:34;4.55;;;1.25;;
76437;SDS011;65273;43.198;0.118;2023-03-25T09:14:00;4.60;;;1.02;;
76437;SDS011;65273;43.198;0.118;2023-03-25T09:16:32;3.92;;;1.00;;
76437;SDS011;65273;43.198;0.118;2023-03-25T09:18:58;2.10;;;0.70;;
76437;SDS011;65273;43.198;0.118;2023-03-25T09:21:23;3.15;;;0.80;;
76437;SDS011;65273;43.198;0.118;2023-03-25T09:23:49;5.32;;;1.23;;
76437;SDS011;65273;43.198;0.118;2023-03-25T09:26:14;5.25;;;0.95;;
76437;SDS011;65273;43.198;0.118;2023-03-25T09:28:40;4.40;;;0.90;;
76437;SDS011;65273;43.198;0.118;2023-03-25T09:31:05;3.65;;;1.20;;
76437;SDS011;65273;43.198;0.118;2023-03-25T09:33:33;4.78;;;1.02;;
76437;SDS011;65273;43.198;0.118;2023-03-25T09:35:59;5.95;;;1.00;;
76437;SDS011;65273;43.198;0.118;2023-03-25T09:38:25;4.75;;;0.90;;
76437;SDS011;65273;43.198;0.118;2023-03-25T09:40:50;4.18;;;0.90;;
76437;SDS011;65273;43.198;0.118;2023-03-25T09:44:02;3.22;;;0.90;;
76437;SDS011;65273;43.198;0.118;2023-03-25T09:46:20;5.63;;;1.48;;
76437;SDS011;65273;43.198;0.118;2023-03-25T09:48:46;2.25;;;0.75;;
76437;SDS011;65273;43.198;0.118;2023-03-25T09:51:13;2.55;;;0.90;;
76437;SDS011;65273;43.198;0.118;2023-03-25T09:53:45;5.18;;;0.93;;
76437;SDS011;65273;43.198;0.118;2023-03-25T09:56:33;4.47;;;0.95;;
76437;SDS011;65273;43.198;0.118;2023-03-25T09:59:10;3.33;;;0.95;;
76437;SDS011;65273;43.198;0.118;2023-03-25T10:01:42;7.05;;;1.10;;
76437;SDS011;65273;43.198;0.118;2023-03-25T10:06:58;5.20;;;1.10;;
76437;SDS011;65273;43.198;0.118;2023-03-25T10:17:32;2.33;;;0.70;;
76437;SDS011;65273;43.198;0.118;2023-03-25T10:19:57;5.15;;;1.20;;
76437;SDS011;65273;43.198;0.118;2023-03-25T10:22:26;4.10;;;0.98;;
76437;SDS011;65273;43.198;0.118;2023-03-25T10:27:33;3.28;;;1.00;;
76437;SDS011;65273;43.198;0.118;2023-03-25T10:30:16;7.47;;;1.30;;
76437;SDS011;65273;43.198;0.118;2023-03-25T10:32:50;7.53;;;0.97;;
76437;SDS011;65273;43.198;0.118;2023-03-25T10:35:22;4.03;;;1.10;;
76437;SDS011;65273;43.198;0.118;2023-03-25T10:37:53;3.47;;;1.00;;
76437;SDS011;65273;43.198;0.118;2023-03-25T10:40:26;5.03;;;0.95;;
76437;SDS011;65273;43.198;0.118;2023-03-25T10:45:38;3.20;;;0.90;;
76437;SDS011;65273;43.198;0.118;2023-03-25T10:48:12;2.85;;;0.95;;
76437;SDS011;65273;43.198;0.118;2023-03-25T10:50:42;6.30;;;1.10;;
76437;SDS011;65273;43.198;0.118;2023-03-25T10:53:19;4.22;;;0.85;;
76437;SDS011;65273;43.198;0.118;2023-03-25T10:55:48;3.28;;;0.88;;
76437;SDS011;65273;43.198;0.118;2023-03-25T10:58:20;1.48;;;0.70;;
76437;SDS011;65273;43.198;0.118;2023-03-25T11:00:46;5.10;;;1.00;;
76437;SDS011;65273;43.198;0.118;2023-03-25T11:03:26;3.67;;;0.93;;
76437;SDS011;65273;43.198;0.118;2023-03-25T11:05:54;4.47;;;1.25;;
76437;SDS011;65273;43.198;0.118;2023-03-25T11:08:21;3.38;;;0.82;;
76437;SDS011;65273;43.198;0.118;2023-03-25T11:10:47;7.55;;;1.30;;
76437;SDS011;65273;43.198;0.118;2023-03-25T11:13:15;4.38;;;1.10;;
76437;SDS011;65273;43.198;0.118;2023-03-25T11:15:46;3.17;;;1.13;;
76437;SDS011;65273;43.198;0.118;2023-03-25T11:20:50;3.00;;;0.90;;
76437;SDS011;65273;43.198;0.118;2023-03-25T11:23:25;3.40;;;1.02;;
76437;SDS011;65273;43.198;0.118;2023-03-25T11:25:55;6.55;;;1.33;;
76437;SDS011;65273;43.198;0.118;2023-03-25T11:28:38;3.60;;;1.08;;
76437;SDS011;65273;43.198;0.118;2023-03-25T11:31:15;4.45;;;1.05;;
76437;SDS011;65273;43.198;0.118;2023-03-25T11:33:43;3.95;;;1.27;;
76437;SDS011;65273;43.198;0.118;2023-03-25T11:36:11;3.78;;;1.10;;
76437;SDS011;65273;43.198;0.118;2023-03-25T11:38:37;5.53;;;1.27;;
76437;SDS011;65273;43.198;0.118;2023-03-25T11:41:04;3.55;;;1.00;;
76437;SDS011;65273;43.198;0.118;2023-03-25T11:43:34;2.63;;;1.05;;
76437;SDS011;65273;43.198;0.118;2023-03-25T11:46:12;4.38;;;1.30;;
76437;SDS011;65273;43.198;0.118;2023-03-25T11:48:39;3.67;;;1.25;;
76437;SDS011;65273;43.198;0.118;2023-03-25T11:51:13;2.92;;;1.10;;
76437;SDS011;65273;43.198;0.118;2023-03-25T11:53:47;5.72;;;1.05;;
76437;SDS011;65273;43.198;0.118;2023-03-25T11:56:37;3.15;;;1.15;;
76437;SDS011;65273;43.198;0.118;2023-03-25T11:59:15;3.15;;;1.17;;
76437;SDS011;65273;43.198;0.118;2023-03-25T12:01:46;3.10;;;1.08;;
76437;SDS011;65273;43.198;0.118;2023-03-25T12:04:14;4.30;;;0.90;;
76437;SDS011;65273;43.198;0.118;2023-03-25T12:06:51;2.80;;;0.75;;
76437;SDS011;65273;43.198;0.118;2023-03-25T12:09:21;3.05;;;1.05;;
76437;SDS011;65273;43.198;0.118;2023-03-25T12:12:00;3.60;;;1.10;;
76437;SDS011;65273;43.198;0.118;2023-03-25T12:20:12;6.35;;;1.63;;
76437;SDS011;65273;43.198;0.118;2023-03-25T12:22:51;2.60;;;0.93;;
76437;SDS011;65273;43.198;0.118;2023-03-25T12:41:44;5.85;;;1.35;;
76437;SDS011;65273;43.198;0.118;2023-03-25T12:44:45;5.35;;;1.10;;
76437;SDS011;65273;43.198;0.118;2023-03-25T12:47:21;3.53;;;1.20;;
76437;SDS011;65273;43.198;0.118;2023-03-25T12:52:21;3.78;;;1.10;;
76437;SDS011;65273;43.198;0.118;2023-03-25T13:08:56;3.53;;;1.05;;
76437;SDS011;65273;43.198;0.118;2023-03-25T13:13:55;2.58;;;0.90;;
76437;SDS011;65273;43.198;0.118;2023-03-25T13:16:21;5.25;;;1.00;;
76437;SDS011;65273;43.198;0.118;2023-03-25T13:18:54;4.72;;;1.00;;
76437;SDS011;65273;43.198;0.118;2023-03-25T13:21:27;3.42;;;1.20;;
76437;SDS011;65273;43.198;0.118;2023-03-25T13:24:16;4.90;;;1.08;;
76437;SDS011;65273;43.198;0.118;2023-03-25T13:26:43;3.20;;;1.00;;
76437;SDS011;65273;43.198;0.118;2023-03-25T13:29:12;7.55;;;1.00;;
76437;SDS011;65273;43.198;0.118;2023-03-25T13:32:00;5.38;;;1.10;;
76437;SDS011;65273;43.198;0.118;2023-03-25T13:34:39;4.53;;;1.48;;
76437;SDS011;65273;43.198;0.118;2023-03-25T13:37:15;5.70;;;1.33;;
76437;SDS011;65273;43.198;0.118;2023-03-25T13:42:40;4.88;;;1.00;;
76437;SDS011;65273;43.198;0.118;2023-03-25T13:45:24;3.83;;;1.20;;
76437;SDS011;65273;43.198;0.118;2023-03-25T13:48:00;9.18;;;1.73;;
76437;SDS011;65273;43.198;0.118;2023-03-25T13:50:30;6.88;;;1.45;;
76437;SDS011;65273;43.198;0.118;2023-03-25T13:53:01;5.53;;;1.25;;
76437;SDS011;65273;43.198;0.118;2023-03-25T13:55:36;9.25;;;1.45;;
76437;SDS011;65273;43.198;0.118;2023-03-25T14:12:08;4.60;;;1.10;;
76437;SDS011;65273;43.198;0.118;2023-03-25T14:14:41;4.75;;;1.30;;
76437;SDS011;65273;43.198;0.118;2023-03-25T14:17:10;2.60;;;1.05;;
76437;SDS011;65273;43.198;0.118;2023-03-25T14:19:37;6.55;;;1.38;;
76437;SDS011;65273;43.198;0.118;2023-03-25T14:22:12;5.68;;;1.17;;
76437;SDS011;65273;43.198;0.118;2023-03-25T14:24:39;4.35;;;1.10;;
76437;SDS011;65273;43.198;0.118;2023-03-25T14:29:50;5.78;;;1.10;;
76437;SDS011;65273;43.198;0.118;2023-03-25T14:34:45;3.60;;;1.30;;
76437;SDS011;65273;43.198;0.118;2023-03-25T14:39:51;5.15;;;1.17;;
76437;SDS011;65273;43.198;0.118;2023-03-25T14:42:26;6.03;;;1.15;;
76437;SDS011;65273;43.198;0.118;2023-03-25T14:44:53;3.88;;;1.33;;
76437;SDS011;65273;43.198;0.118;2023-03-25T14:47:57;4.75;;;1.35;;
76437;SDS011;65273;43.198;0.118;2023-03-25T14:52:49;7.22;;;1.52;;
76437;SDS011;65273;43.198;0.118;2023-03-25T14:55:26;9.43;;;1.20;;
76437;SDS011;65273;43.198;0.118;2023-03-25T14:57:58;7.50;;;1.10;;
76437;SDS011;65273;43.198;0.118;2023-03-25T15:00:28;3.70;;;0.90;;
76437;SDS011;65273;43.198;0.118;2023-03-25T15:03:03;4.53;;;1.17;;
76437;SDS011;65273;43.198;0.118;2023-03-25T15:05:31;6.25;;;1.17;;
76437;SDS011;65273;43.198;0.118;2023-03-25T15:07:59;4.97;;;1.25;;
76437;SDS011;65273;43.198;0.118;2023-03-25T15:10:47;6.95;;;1.13;;
76437;SDS011;65273;43.198;0.118;2023-03-25T15:15:56;6.18;;;1.40;;
76437;SDS011;65273;43.198;0.118;2023-03-25T15:26:25;3.67;;;0.95;;
76437;SDS011;65273;43.198;0.118;2023-03-25T15:37:20;5.78;;;1.30;;
76437;SDS011;65273;43.198;0.118;2023-03-25T15:40:10;6.70;;;1.30;;
76437;SDS011;65273;43.198;0.118;2023-03-25T15:46:12;6.13;;;1.10;;
76437;SDS011;65273;43.198;0.118;2023-03-25T15:54:44;5.55;;;1.02;;
76437;SDS011;65273;43.198;0.118;2023-03-25T15:57:20;6.75;;;1.17;;
76437;SDS011;65273;43.198;0.118;2023-03-25T16:02:49;5.53;;;1.65;;
76437;SDS011;65273;43.198;0.118;2023-03-25T16:05:18;8.52;;;1.55;;
76437;SDS011;65273;43.198;0.118;2023-03-25T16:07:44;5.07;;;1.10;;
76437;SDS011;65273;43.198;0.118;2023-03-25T16:10:18;5.10;;;1.05;;
76437;SDS011;65273;43.198;0.118;2023-03-25T16:12:52;5.40;;;1.50;;
76437;SDS011;65273;43.198;0.118;2023-03-25T16:15:25;5.95;;;1.10;;
76437;SDS011;65273;43.198;0.118;2023-03-25T16:17:51;9.82;;;1.80;;
76437;SDS011;65273;43.198;0.118;2023-03-25T16:20:18;4.45;;;1.30;;
76437;SDS011;65273;43.198;0.118;2023-03-25T16:22:50;6.47;;;1.40;;
76437;SDS011;65273;43.198;0.118;2023-03-25T16:25:19;10.48;;;1.48;;
76437;SDS011;65273;43.198;0.118;2023-03-25T16:27:53;10.18;;;1.88;;
76437;SDS011;65273;43.198;0.118;2023-03-25T16:30:27;5.32;;;1.38;;
76437;SDS011;65273;43.198;0.118;2023-03-25T16:37:56;6.95;;;1.55;;
76437;SDS011;65273;43.198;0.118;2023-03-25T16:40:25;3.97;;;1.30;;
76437;SDS011;65273;43.198;0.118;2023-03-25T16:42:53;4.75;;;1.00;;
76437;SDS011;65273;43.198;0.118;2023-03-25T16:45:19;5.47;;;1.60;;
76437;SDS011;65273;43.198;0.118;2023-03-25T16:47:46;6.65;;;1.90;;
76437;SDS011;65273;43.198;0.118;2023-03-25T16:50:14;6.07;;;1.60;;
76437;SDS011;65273;43.198;0.118;2023-03-25T16:52:42;7.35;;;1.73;;
76437;SDS011;65273;43.198;0.118;2023-03-25T16:57:57;6.97;;;1.75;;
76437;SDS011;65273;43.198;0.118;2023-03-25T17:00:23;8.48;;;2.00;;
76437;SDS011;65273;43.198;0.118;2023-03-25T17:02:50;7.32;;;1.40;;
76437;SDS011;65273;43.198;0.118;2023-03-25T17:05:20;6.40;;;1.65;;
76437;SDS011;65273;43.198;0.118;2023-03-25T17:07:48;3.63;;;1.33;;
76437;SDS011;65273;43.198;0.118;2023-03-25T17:12:49;6.00;;;1.38;;
76437;SDS011;65273;43.198;0.118;2023-03-25T17:15:17;6.60;;;1.13;;
76437;SDS011;65273;43.198;0.118;2023-03-25T17:17:44;9.80;;;1.50;;
76437;SDS011;65273;43.198;0.118;2023-03-25T17:20:48;7.93;;;1.48;;
76437;SDS011;65273;43.198;0.118;2023-03-25T17:23:53;5.78;;;1.30;;
76437;SDS011;65273;43.198;0.118;2023-03-25T17:25:58;5.95;;;1.70;;
76437;SDS011;65273;43.198;0.118;2023-03-25T17:28:40;5.55;;;1.50;;
76437;SDS011;65273;43.198;0.118;2023-03-25T17:33:46;7.95;;;1.80;;
76437;SDS011;65273;43.198;0.118;2023-03-25T17:36:36;3.92;;;1.45;;
76437;SDS011;65273;43.198;0.118;2023-03-25T17:39:05;9.77;;;1.55;;
76437;SDS011;65273;43.198;0.118;2023-03-25T17:41:46;4.65;;;1.42;;
76437;SDS011;65273;43.198;0.118;2023-03-25T17:44:18;5.68;;;1.98;;
76437;SDS011;65273;43.198;0.118;2023-03-25T17:46:44;7.63;;;1.40;;
76437;SDS011;65273;43.198;0.118;2023-03-25T17:49:14;7.70;;;1.60;;
76437;SDS011;65273;43.198;0.118;2023-03-25T17:51:41;6.30;;;1.70;;
76437;SDS011;65273;43.198;0.118;2023-03-25T17:54:07;8.32;;;1.40;;
76437;SDS011;65273;43.198;0.118;2023-03-25T17:56:33;11.10;;;2.00;;
76437;SDS011;65273;43.198;0.118;2023-03-25T17:58:59;7.47;;;1.80;;